createdAt,value
2022-08-03T00:08:21.871Z,101026.84
2022-08-03T00:13:23.941Z,101026.03
2022-08-03T00:18:34.069Z,101023.06
2022-08-03T00:28:52.200Z,101014.91
2022-08-03T00:33:59.567Z,101010.31
2022-08-03T00:39:16.395Z,101010.59
2022-08-03T00:44:18.009Z,101013.84
2022-08-03T00:49:23.100Z,101009.78
2022-08-03T00:54:28.438Z,101011.09
2022-08-03T00:59:33.095Z,101010.28
2022-08-03T01:04:47.696Z,101008.94
2022-08-03T01:10:01.465Z,101004.63
2022-08-03T01:15:55.357Z,101007.28
2022-08-03T01:21:01.134Z,101001.34
2022-08-03T01:26:33.747Z,100997.84
2022-08-03T01:32:52.391Z,101002.19
2022-08-03T01:38:03.157Z,101008.38
2022-08-03T01:43:08.946Z,101010.25
2022-08-03T01:48:14.285Z,101003.19
2022-08-03T01:53:18.534Z,100997.78
2022-08-03T01:58:21.888Z,100997.47
2022-08-03T02:03:27.182Z,100991.53
2022-08-03T02:08:38.120Z,100996.09
2022-08-03T02:13:43.494Z,100984.75
2022-08-03T02:18:49.039Z,100997.19
2022-08-03T02:30:03.134Z,100987.41
2022-08-03T02:35:07.291Z,100985.78
2022-08-03T02:40:14.265Z,100982.25
2022-08-03T02:46:09.868Z,100983.59
2022-08-03T02:51:13.295Z,100984.91
2022-08-03T02:56:38.848Z,100983.53
2022-08-03T03:01:47.902Z,100982.97
2022-08-03T03:07:51.658Z,100984.59
2022-08-03T03:12:59.425Z,100986.47
2022-08-03T03:18:11.404Z,100981.63
2022-08-03T03:28:29.912Z,100985.03
2022-08-03T03:33:36.630Z,100987.16
2022-08-03T03:38:39.745Z,100988.75
2022-08-03T03:43:42.761Z,101002.81
2022-08-03T03:48:55.427Z,100998.72
2022-08-03T03:54:04.211Z,100988.16
2022-08-03T03:59:08.733Z,100980.31
2022-08-03T04:04:19.023Z,100988.72
2022-08-03T04:09:33.390Z,100990.34
2022-08-03T04:25:37.848Z,100994.69
2022-08-03T04:30:48.250Z,100995.22
2022-08-03T04:47:44.488Z,101007.19
2022-08-03T04:52:48.607Z,101017.47
2022-08-03T04:57:50.167Z,101015.84
2022-08-03T06:01:23.128Z,101033.47
2022-08-03T07:55:07.648Z,101049.09
2022-08-03T08:00:15.793Z,101045.91
2022-08-03T08:05:17.273Z,101040.56
2022-08-03T08:10:19.127Z,101048.66
2022-08-03T08:15:21.168Z,101044.06
2022-08-03T08:20:31.361Z,101043.97
2022-08-03T08:25:33.649Z,101041.94
2022-08-03T08:30:41.151Z,101051.34
2022-08-03T08:35:45.758Z,101057.06
2022-08-03T08:40:50.269Z,101043.81
2022-08-03T08:45:58.660Z,101045.75
2022-08-03T08:51:10.294Z,101055.31
2022-08-03T08:56:17.011Z,101053.16
2022-08-03T09:01:20.319Z,101054.84
2022-08-03T09:07:04.382Z,101045.03
2022-08-03T09:12:35.305Z,101048.16
2022-08-03T09:17:41.076Z,101039.38
2022-08-03T09:23:19.070Z,101039.09
2022-08-03T09:28:59.942Z,101045.94
2022-08-03T09:39:42.423Z,101041.16
2022-08-03T09:44:49.017Z,101038.91
2022-08-03T09:56:34.962Z,101036.22
2022-08-03T10:01:05.851Z,101039.06
2022-08-03T10:06:20.317Z,101043.53
2022-08-03T10:11:32.019Z,101036.72
2022-08-03T10:16:38.551Z,101019.38
2022-08-03T10:21:43.923Z,101020.56
2022-08-03T10:26:59.882Z,101016.94
2022-08-03T10:32:37.740Z,101014.69
2022-08-03T10:37:42.703Z,101018.34
2022-08-03T10:43:49.333Z,101007.88
2022-08-03T10:48:55.281Z,100992.84
2022-08-03T10:54:12.874Z,100996.78
2022-08-03T10:59:27.928Z,100982.50
2022-08-03T11:04:30.635Z,100978.97
2022-08-03T11:10:12.464Z,100984.59
2022-08-03T11:32:52.678Z,100965.22
2022-08-03T11:44:02.662Z,100953.63
2022-08-03T11:50:03.462Z,100954.94
2022-08-03T12:01:18.870Z,100951.28
2022-08-03T12:11:51.072Z,100946.59
2022-08-03T12:23:11.581Z,100938.53
2022-08-03T12:28:37.413Z,100937.88
2022-08-03T12:34:09.785Z,100932.97
2022-08-03T12:39:31.639Z,100940.72
2022-08-03T12:44:47.190Z,100927.72
2022-08-03T12:57:04.210Z,100928.13
2022-08-03T13:02:02.286Z,100927.00
2022-08-03T13:08:04.532Z,100914.97
2022-08-03T13:13:06.233Z,100917.69
2022-08-03T13:18:08.834Z,100911.88
2022-08-03T13:23:13.901Z,100910.09
2022-08-03T13:28:28.872Z,100911.03
2022-08-03T13:33:30.830Z,100898.19
2022-08-03T13:38:32.892Z,100891.84
2022-08-03T13:43:35.952Z,100884.44
2022-08-03T13:48:38.006Z,100891.94
2022-08-03T13:53:39.655Z,100869.38
2022-08-03T13:58:43.315Z,100872.19
2022-08-03T14:03:45.099Z,100869.91
2022-08-03T14:08:49.069Z,100864.56
2022-08-03T14:13:50.639Z,100863.44
2022-08-03T14:18:52.366Z,100860.06
2022-08-03T14:23:54.013Z,100852.97
2022-08-03T14:28:56.234Z,100845.56
2022-08-03T14:33:57.903Z,100837.97
2022-08-03T14:39:01.557Z,100841.19
2022-08-03T14:44:03.783Z,100824.03
2022-08-03T14:50:36.978Z,100821.91
2022-08-03T14:54:27.588Z,100818.72
2022-08-03T14:59:29.206Z,100816.38
2022-08-03T15:04:51.733Z,100809.56
2022-08-03T15:10:02.449Z,100803.16
2022-08-03T15:15:28.202Z,100800.34
2022-08-03T15:44:20.185Z,100772.19
2022-08-03T15:50:11.180Z,100764.47
2022-08-03T16:01:23.124Z,100760.31
2022-08-03T16:06:29.876Z,100762.13
2022-08-03T16:11:40.330Z,100761.19
2022-08-03T16:16:43.625Z,100765.25
2022-08-03T16:21:54.152Z,100759.53
2022-08-03T16:27:04.108Z,100755.50
2022-08-03T16:38:09.214Z,100757.19
2022-08-03T16:43:18.237Z,100750.47
2022-08-03T16:48:20.779Z,100753.91
2022-08-03T16:53:33.699Z,100748.19
2022-08-03T16:58:44.921Z,100751.09
2022-08-03T17:04:01.842Z,100759.34
2022-08-03T17:09:12.242Z,100751.72
2022-08-03T17:14:15.767Z,100758.47
2022-08-03T17:19:18.261Z,100762.97
2022-08-03T17:24:40.778Z,100759.13
2022-08-03T17:29:46.466Z,100752.50
2022-08-03T17:34:49.077Z,100760.97
2022-08-03T17:39:59.623Z,100749.34
2022-08-03T17:45:03.519Z,100749.44
2022-08-03T17:50:24.560Z,100750.63
2022-08-03T17:55:56.225Z,100753.78
2022-08-03T18:00:52.212Z,100749.78
2022-08-03T18:06:11.437Z,100750.16
2022-08-03T18:11:17.446Z,100747.09
2022-08-03T18:16:27.773Z,100748.56
2022-08-03T18:22:03.087Z,100748.75
2022-08-03T18:26:51.516Z,100757.72
2022-08-03T18:32:02.933Z,100753.16
2022-08-03T18:37:07.282Z,100754.91
2022-08-03T18:42:09.448Z,100751.53
2022-08-03T18:47:52.351Z,100756.91
2022-08-03T18:53:00.088Z,100748.56
2022-08-03T18:58:04.279Z,100746.19
2022-08-03T19:03:08.716Z,100757.03
2022-08-03T19:08:36.927Z,100758.41
2022-08-03T19:13:50.179Z,100762.31
